createdAt,value
2023-01-13T00:00:20.485Z,101478.07
2023-01-13T00:00:42.692Z,101480.19
2023-01-13T00:01:08.192Z,101479.88
2023-01-13T00:01:29.998Z,101480.92
2023-01-13T00:01:51.879Z,101479.41
2023-01-13T00:02:13.725Z,101479.43
2023-01-13T00:02:35.723Z,101479.12
2023-01-13T00:02:57.643Z,101482.77
2023-01-13T00:03:19.736Z,101480.02
2023-01-13T00:03:41.522Z,101479.70
2023-01-13T00:04:05.144Z,101477.30
2023-01-13T00:04:26.974Z,101477.84
2023-01-13T00:04:48.965Z,101479.42
2023-01-13T00:05:11.119Z,101477.35
2023-01-13T00:05:32.896Z,101476.85
2023-01-13T00:05:54.784Z,101476.34
2023-01-13T00:06:17.589Z,101474.45
2023-01-13T00:06:39.385Z,101475.16
2023-01-13T00:07:01.160Z,101477.59
2023-01-13T00:07:23.044Z,101474.14
2023-01-13T00:07:46.673Z,101473.98
2023-01-13T00:08:08.469Z,101475.73
2023-01-13T00:08:30.544Z,101473.66
2023-01-13T00:08:52.741Z,101479.57
2023-01-13T00:09:14.625Z,101477.84
2023-01-13T00:09:36.410Z,101477.68
2023-01-13T00:09:58.194Z,101476.83
2023-01-13T00:10:20.078Z,101480.66
2023-01-13T00:10:41.866Z,101480.84
2023-01-13T00:11:03.656Z,101479.81
2023-01-13T00:11:26.564Z,101481.02
2023-01-13T00:11:48.448Z,101479.97
2023-01-13T00:12:10.240Z,101479.77
2023-01-13T00:12:32.115Z,101483.56
2023-01-13T00:12:54.010Z,101482.96
2023-01-13T00:13:15.999Z,101483.08
2023-01-13T00:13:38.701Z,101482.16
2023-01-13T00:14:00.489Z,101482.96
2023-01-13T00:14:22.379Z,101486.16
2023-01-13T00:14:44.254Z,101485.24
2023-01-13T00:15:06.653Z,101484.83
2023-01-13T00:15:28.438Z,101482.68
2023-01-13T00:16:03.385Z,101481.58
2023-01-13T00:16:25.415Z,101481.89
2023-01-13T00:16:47.191Z,101487.06
2023-01-13T00:17:09.080Z,101482.39
2023-01-13T00:17:30.863Z,101479.95
2023-01-13T00:17:52.749Z,101485.51
2023-01-13T00:18:14.532Z,101481.89
2023-01-13T00:18:39.285Z,101478.96
2023-01-13T00:19:01.171Z,101480.71
2023-01-13T00:19:23.466Z,101479.50
2023-01-13T00:19:46.068Z,101479.86
2023-01-13T00:20:08.570Z,101481.61
2023-01-13T00:20:30.476Z,101479.04
2023-01-13T00:21:18.737Z,101481.83
2023-01-13T00:21:40.628Z,101479.77
2023-01-13T00:22:02.411Z,101478.08
2023-01-13T00:22:24.287Z,101477.05
2023-01-13T00:22:46.071Z,101476.91
2023-01-13T00:23:07.858Z,101477.44
2023-01-13T00:23:30.152Z,101473.45
2023-01-13T00:23:52.450Z,101477.97
2023-01-13T00:24:14.233Z,101475.55
2023-01-13T00:24:36.043Z,101470.90
2023-01-13T00:25:01.589Z,101470.92
2023-01-13T00:25:23.375Z,101472.13
2023-01-13T00:25:45.159Z,101471.45
2023-01-13T00:26:10.932Z,101470.45
2023-01-13T00:26:36.013Z,101472.38
2023-01-13T00:26:57.872Z,101472.56
2023-01-13T00:27:19.654Z,101470.66
2023-01-13T00:27:41.546Z,101469.64
2023-01-13T00:28:03.543Z,101469.48
2023-01-13T00:28:25.523Z,101469.49
2023-01-13T00:28:47.616Z,101471.39
2023-01-13T00:29:09.395Z,101468.58
2023-01-13T00:29:31.183Z,101470.11
2023-01-13T00:29:53.070Z,101467.29
2023-01-13T00:30:15.166Z,101465.66
2023-01-13T00:30:38.586Z,101466.95
2023-01-13T00:31:06.662Z,101469.13
2023-01-13T00:31:28.925Z,101469.73
2023-01-13T00:31:50.994Z,101468.10
2023-01-13T00:32:12.776Z,101467.02
2023-01-13T00:32:34.666Z,101467.69
2023-01-13T00:32:56.451Z,101469.59
2023-01-13T00:33:18.247Z,101469.54
2023-01-13T00:33:40.127Z,101467.83
2023-01-13T00:34:02.309Z,101468.38
2023-01-13T00:34:24.917Z,101466.64
2023-01-13T00:34:46.714Z,101468.42
2023-01-13T00:35:08.585Z,101465.80
2023-01-13T00:35:30.368Z,101464.28
2023-01-13T00:36:01.663Z,101466.20
2023-01-13T00:36:23.456Z,101469.16
2023-01-13T00:36:45.440Z,101469.20
2023-01-13T00:37:08.354Z,101466.27
2023-01-13T00:37:30.131Z,101466.63
2023-01-13T00:37:51.915Z,101466.81
2023-01-13T00:38:13.808Z,101464.92
2023-01-13T00:38:35.792Z,101468.56
2023-01-13T00:38:57.886Z,101465.45
2023-01-13T00:39:19.667Z,101464.23
2023-01-13T00:39:41.657Z,101468.55
2023-01-13T00:40:03.756Z,101468.05
2023-01-13T00:40:25.636Z,101465.48
2023-01-13T00:40:55.090Z,101467.58
2023-01-13T00:41:17.808Z,101467.56
2023-01-13T00:41:58.096Z,101466.55
2023-01-13T00:42:38.800Z,101466.20
2023-01-13T00:43:19.500Z,101467.77
2023-01-13T00:43:41.422Z,101468.48
2023-01-13T00:44:03.280Z,101464.67
2023-01-13T00:44:25.061Z,101467.23
2023-01-13T00:44:46.844Z,101467.70
2023-01-13T00:45:08.939Z,101467.46
2023-01-13T00:45:30.719Z,101464.65
2023-01-13T00:45:53.229Z,101466.14
2023-01-13T00:46:16.270Z,101470.05
2023-01-13T00:46:38.490Z,101467.03
2023-01-13T00:47:01.027Z,101465.93
2023-01-13T00:47:23.631Z,101466.23
2023-01-13T00:47:45.417Z,101468.28
2023-01-13T00:48:07.300Z,101465.83
2023-01-13T00:48:29.392Z,101469.98
2023-01-13T00:48:51.881Z,101467.55
2023-01-13T00:49:13.883Z,101468.07
2023-01-13T00:49:35.769Z,101467.56
2023-01-13T00:49:57.865Z,101468.10
2023-01-13T00:50:19.647Z,101466.88
2023-01-13T00:50:41.431Z,101465.19
2023-01-13T00:51:07.007Z,101466.77
2023-01-13T00:51:28.884Z,101466.59
2023-01-13T00:51:50.668Z,101462.79
2023-01-13T00:52:12.455Z,101465.05
2023-01-13T00:52:34.353Z,101462.66
2023-01-13T00:52:56.137Z,101462.85
2023-01-13T00:53:18.933Z,101461.98
2023-01-13T00:53:41.644Z,101463.91
2023-01-13T00:54:03.525Z,101460.65
2023-01-13T00:54:25.309Z,101461.36
2023-01-13T00:54:47.196Z,101459.83
2023-01-13T00:55:09.290Z,101458.63
2023-01-13T00:55:31.407Z,101461.59
2023-01-13T00:56:18.108Z,101458.49
2023-01-13T00:56:41.247Z,101459.05
2023-01-13T00:57:03.939Z,101459.05
2023-01-13T00:57:25.725Z,101458.02
2023-01-13T00:57:47.614Z,101454.04
2023-01-13T00:58:09.404Z,101455.44
2023-01-13T00:58:31.596Z,101454.58
2023-01-13T00:58:53.698Z,101455.48
2023-01-13T00:59:15.867Z,101455.81
2023-01-13T00:59:37.654Z,101455.83
2023-01-13T00:59:59.448Z,101456.36
2023-01-13T01:00:21.325Z,101455.00
2023-01-13T01:00:43.286Z,101455.52
2023-01-13T01:01:06.330Z,101456.23
2023-01-13T01:01:28.500Z,101457.27
2023-01-13T01:01:50.496Z,101457.48
2023-01-13T01:02:12.611Z,101456.11
2023-01-13T01:02:34.515Z,101460.63
2023-01-13T01:02:56.372Z,101458.02
2023-01-13T01:03:18.159Z,101457.64
2023-01-13T01:03:40.048Z,101454.33
2023-01-13T01:04:01.937Z,101458.24
2023-01-13T01:04:23.718Z,101455.94
2023-01-13T01:04:45.608Z,101458.30
2023-01-13T01:05:07.697Z,101457.03
2023-01-13T01:05:29.580Z,101458.85
2023-01-13T01:05:51.367Z,101458.44
2023-01-13T01:06:14.183Z,101458.92
2023-01-13T01:06:35.941Z,101461.12
2023-01-13T01:06:57.745Z,101460.92
2023-01-13T01:07:19.529Z,101461.08
2023-01-13T01:07:41.318Z,101457.61
2023-01-13T01:08:03.303Z,101455.02
2023-01-13T01:08:25.085Z,101456.58
2023-01-13T01:08:46.979Z,101456.78
2023-01-13T01:09:10.291Z,101457.31
2023-01-13T01:09:34.835Z,101455.27
2023-01-13T01:09:56.621Z,101457.52
2023-01-13T01:10:18.508Z,101458.42
2023-01-13T01:10:40.290Z,101459.30
2023-01-13T01:11:03.104Z,101457.58
2023-01-13T01:11:26.238Z,101454.48
2023-01-13T01:11:48.098Z,101454.52
2023-01-13T01:12:09.994Z,101454.71
2023-01-13T01:12:31.770Z,101452.48
2023-01-13T01:12:53.567Z,101454.21
2023-01-13T01:13:17.595Z,101455.80
2023-01-13T01:13:39.577Z,101453.91
2023-01-13T01:14:02.354Z,101451.15
2023-01-13T01:14:24.376Z,101453.39
2023-01-13T01:14:46.265Z,101452.40
2023-01-13T01:15:10.193Z,101450.15
2023-01-13T01:15:32.092Z,101451.55
2023-01-13T01:15:53.908Z,101448.42
2023-01-13T01:16:16.306Z,101449.46
2023-01-13T01:16:38.255Z,101448.09
2023-01-13T01:17:00.046Z,101449.30
2023-01-13T01:17:21.827Z,101452.43
2023-01-13T01:17:43.605Z,101454.88
2023-01-13T01:18:05.391Z,101455.05
2023-01-13T01:18:27.279Z,101456.96
2023-01-13T01:18:49.582Z,101453.34
2023-01-13T01:19:11.460Z,101458.41
2023-01-13T01:19:33.449Z,101454.77
2023-01-13T01:19:55.238Z,101457.05
2023-01-13T01:20:17.233Z,101455.84
2023-01-13T01:20:39.109Z,101456.22
2023-01-13T01:21:01.028Z,101457.29
2023-01-13T01:21:23.497Z,101460.41
2023-01-13T01:21:45.284Z,101459.02
2023-01-13T01:22:07.074Z,101460.27
2023-01-13T01:22:28.849Z,101461.30
2023-01-13T01:22:50.645Z,101460.63
2023-01-13T01:23:12.417Z,101461.52
2023-01-13T01:23:34.306Z,101461.36
2023-01-13T01:23:56.195Z,101461.54
2023-01-13T01:24:18.084Z,101462.77
2023-01-13T01:24:39.973Z,101462.61
2023-01-13T01:25:01.968Z,101460.21
2023-01-13T01:25:23.862Z,101461.42
2023-01-13T01:25:45.728Z,101460.05
2023-01-13T01:26:27.770Z,101461.05
2023-01-13T01:26:49.549Z,101460.09
2023-01-13T01:27:11.335Z,101461.41
2023-01-13T01:27:33.232Z,101460.33
2023-01-13T01:27:55.104Z,101460.96
2023-01-13T01:28:19.546Z,101461.58
2023-01-13T01:28:41.543Z,101462.17
2023-01-13T01:29:03.438Z,101464.69
2023-01-13T01:29:25.312Z,101460.84
2023-01-13T01:29:47.198Z,101464.27
2023-01-13T01:30:09.390Z,101462.86
2023-01-13T01:30:31.280Z,101462.48
2023-01-13T01:30:55.524Z,101465.11
2023-01-13T01:31:17.388Z,101463.71
2023-01-13T01:31:39.317Z,101463.73
2023-01-13T01:32:01.178Z,101465.32
2023-01-13T01:32:22.968Z,101464.46
2023-01-13T01:32:44.951Z,101463.80
2023-01-13T01:33:06.836Z,101465.02
2023-01-13T01:33:28.623Z,101463.64
2023-01-13T01:33:50.514Z,101466.61
2023-01-13T01:34:12.298Z,101463.70
2023-01-13T01:34:34.181Z,101464.41
2023-01-13T01:34:56.067Z,101466.83
2023-01-13T01:35:17.852Z,101464.45
2023-01-13T01:35:40.454Z,101461.52
2023-01-13T01:36:02.675Z,101463.96
2023-01-13T01:36:26.987Z,101463.13
2023-01-13T01:36:48.775Z,101466.10
2023-01-13T01:37:10.555Z,101466.64
2023-01-13T01:37:32.557Z,101467.02
2023-01-13T01:37:54.332Z,101465.10
2023-01-13T01:38:16.115Z,101462.86
2023-01-13T01:38:38.103Z,101464.09
2023-01-13T01:39:00.220Z,101461.14
2023-01-13T01:39:22.300Z,101464.80
2023-01-13T01:39:44.176Z,101465.16
2023-01-13T01:40:06.371Z,101463.97
2023-01-13T01:40:28.362Z,101464.33
2023-01-13T01:40:50.145Z,101463.30
2023-01-13T01:41:15.614Z,101461.07
2023-01-13T01:41:37.521Z,101462.83
2023-01-13T01:42:18.203Z,101462.98
2023-01-13T01:42:59.013Z,101461.73
2023-01-13T01:43:40.223Z,101461.12
2023-01-13T01:44:07.938Z,101461.38
2023-01-13T01:44:41.797Z,101459.22
2023-01-13T01:45:14.019Z,101461.40
2023-01-13T01:45:36.000Z,101462.38
2023-01-13T01:45:57.783Z,101457.64
2023-01-13T01:46:19.622Z,101456.56
2023-01-13T01:46:42.345Z,101455.14
2023-01-13T01:47:04.412Z,101458.95
2023-01-13T01:47:26.359Z,101456.67
2023-01-13T01:47:48.854Z,101457.02
2023-01-13T01:48:10.741Z,101457.22
2023-01-13T01:48:40.402Z,101458.61
2023-01-13T01:49:22.435Z,101456.22
2023-01-13T01:49:44.422Z,101457.64
2023-01-13T01:50:06.514Z,101458.89
2023-01-13T01:50:28.606Z,101454.73
2023-01-13T01:50:50.496Z,101454.58
2023-01-13T01:51:12.686Z,101455.83
2023-01-13T01:51:36.118Z,101453.94
2023-01-13T01:52:00.875Z,101453.80
2023-01-13T01:52:22.747Z,101456.41
2023-01-13T01:52:44.836Z,101456.08
2023-01-13T01:53:08.764Z,101455.59
2023-01-13T01:53:30.560Z,101455.27
2023-01-13T01:53:53.157Z,101457.02
2023-01-13T01:54:17.500Z,101459.63
2023-01-13T01:54:44.190Z,101456.52
2023-01-13T01:55:06.291Z,101456.74
2023-01-13T01:55:29.600Z,101456.73
2023-01-13T01:55:51.390Z,101459.69
2023-01-13T01:56:13.176Z,101459.02
2023-01-13T01:56:35.057Z,101458.34
2023-01-13T01:56:56.840Z,101458.00
2023-01-13T01:57:23.537Z,101457.50
2023-01-13T01:58:00.458Z,101458.20
2023-01-13T01:58:26.236Z,101460.11
2023-01-13T01:58:49.979Z,101456.33
2023-01-13T01:59:11.945Z,101459.46
2023-01-13T01:59:33.735Z,101458.95
2023-01-13T01:59:55.615Z,101457.55
2023-01-13T02:00:17.405Z,101458.91
2023-01-13T02:00:39.516Z,101454.19
2023-01-13T02:01:01.489Z,101455.70
2023-01-13T02:01:23.652Z,101455.63
2023-01-13T02:01:45.721Z,101452.30
2023-01-13T02:02:08.050Z,101454.66
2023-01-13T02:02:30.186Z,101457.02
2023-01-13T02:02:52.043Z,101456.79
2023-01-13T02:03:14.435Z,101453.45
2023-01-13T02:03:37.041Z,101453.73
2023-01-13T02:04:00.668Z,101454.92
2023-01-13T02:04:26.237Z,101453.88
2023-01-13T02:04:51.246Z,101454.03
2023-01-13T02:05:13.079Z,101454.37
2023-01-13T02:05:34.963Z,101454.02
2023-01-13T02:05:56.850Z,101453.33
2023-01-13T02:06:18.637Z,101451.09
2023-01-13T02:06:40.529Z,101450.25
2023-01-13T02:07:02.718Z,101451.81
2023-01-13T02:07:26.036Z,101454.07
2023-01-13T02:07:48.327Z,101455.65
2023-01-13T02:08:10.426Z,101454.80
2023-01-13T02:08:32.304Z,101454.30
2023-01-13T02:08:54.090Z,101454.30
2023-01-13T02:09:15.889Z,101454.48
2023-01-13T02:09:37.764Z,101455.71
2023-01-13T02:10:01.290Z,101457.45
2023-01-13T02:10:23.888Z,101455.23
2023-01-13T02:10:46.079Z,101453.31
2023-01-13T02:11:27.911Z,101454.56
2023-01-13T02:12:08.824Z,101455.27
2023-01-13T02:12:30.724Z,101459.09
2023-01-13T02:12:52.599Z,101455.81
2023-01-13T02:13:14.389Z,101458.95
2023-01-13T02:13:36.163Z,101456.88
2023-01-13T02:13:57.952Z,101458.79
2023-01-13T02:14:20.552Z,101459.13
2023-01-13T02:14:42.358Z,101460.19
2023-01-13T02:15:08.215Z,101458.48
2023-01-13T02:15:38.687Z,101456.27
2023-01-13T02:16:06.747Z,101454.89
2023-01-13T02:16:28.589Z,101459.06
2023-01-13T02:17:09.302Z,101458.36
2023-01-13T02:17:49.805Z,101457.61
2023-01-13T02:18:31.943Z,101457.16
2023-01-13T02:18:56.492Z,101457.10
2023-01-13T02:19:21.242Z,101456.98
2023-01-13T02:19:51.000Z,101456.91
2023-01-13T02:20:45.204Z,101457.71
2023-01-13T02:21:06.992Z,101458.49
2023-01-13T02:21:49.025Z,101458.13
2023-01-13T02:22:31.061Z,101456.57
2023-01-13T02:22:52.844Z,101454.66
2023-01-13T02:23:52.777Z,101455.72
2023-01-13T02:24:33.274Z,101458.89
2023-01-13T02:25:00.803Z,101457.36
2023-01-13T02:25:25.643Z,101457.94
2023-01-13T02:25:55.925Z,101457.45
2023-01-13T02:26:30.280Z,101458.86
2023-01-13T02:26:52.170Z,101456.97
2023-01-13T02:27:23.053Z,101458.77
2023-01-13T02:27:47.506Z,101456.01
2023-01-13T02:28:28.406Z,101456.91
2023-01-13T02:29:24.048Z,101455.67
2023-01-13T02:30:19.912Z,101452.27
2023-01-13T02:31:01.612Z,101453.88
2023-01-13T02:31:41.978Z,101455.83
2023-01-13T02:32:05.433Z,101460.38
2023-01-13T02:32:33.763Z,101461.10
2023-01-13T02:33:04.754Z,101456.48
2023-01-13T02:33:29.503Z,101462.36
2023-01-13T02:33:54.463Z,101456.68
2023-01-13T02:34:17.879Z,101459.83
2023-01-13T02:34:40.665Z,101459.48
2023-01-13T02:35:10.457Z,101462.83
2023-01-13T02:35:44.095Z,101460.23
2023-01-13T02:36:11.712Z,101459.15
2023-01-13T02:36:42.496Z,101461.36
2023-01-13T02:37:04.282Z,101463.01
2023-01-13T02:37:28.934Z,101460.69
2023-01-13T02:37:51.030Z,101462.17
2023-01-13T02:38:13.111Z,101461.96
2023-01-13T02:38:35.917Z,101460.86
2023-01-13T02:38:58.637Z,101464.09
2023-01-13T02:39:23.987Z,101462.81
2023-01-13T02:39:59.280Z,101462.40
2023-01-13T02:40:23.817Z,101467.05
2023-01-13T02:40:45.606Z,101465.42
2023-01-13T02:41:31.726Z,101463.73
2023-01-13T02:42:18.365Z,101464.09
2023-01-13T02:42:59.581Z,101462.56
2023-01-13T02:43:44.887Z,101466.29
2023-01-13T02:44:06.983Z,101462.86
2023-01-13T02:44:30.298Z,101464.13
2023-01-13T02:44:53.617Z,101462.08
2023-01-13T02:45:26.080Z,101459.70
2023-01-13T02:45:49.890Z,101461.27
2023-01-13T02:46:15.948Z,101459.77
2023-01-13T02:46:43.768Z,101461.51
2023-01-13T02:47:06.880Z,101462.58
2023-01-13T02:47:28.971Z,101460.87
2023-01-13T02:47:50.970Z,101460.88
2023-01-13T02:48:12.745Z,101458.98
2023-01-13T02:48:34.634Z,101465.27
2023-01-13T02:48:57.154Z,101462.48
2023-01-13T02:49:39.167Z,101460.25
2023-01-13T02:50:02.283Z,101463.73
2023-01-13T02:50:35.010Z,101463.59
2023-01-13T02:50:58.845Z,101464.66
2023-01-13T02:51:21.064Z,101461.03
2023-01-13T02:51:42.923Z,101464.69
2023-01-13T02:52:12.073Z,101461.90
2023-01-13T02:52:35.606Z,101462.92
2023-01-13T02:52:58.703Z,101464.61
2023-01-13T02:53:22.438Z,101462.81
2023-01-13T02:54:03.137Z,101462.58
2023-01-13T02:54:25.843Z,101464.38
2023-01-13T02:54:49.265Z,101466.05
2023-01-13T02:55:12.686Z,101466.36
2023-01-13T02:55:35.104Z,101463.89
2023-01-13T02:55:56.968Z,101463.15
2023-01-13T02:56:18.755Z,101463.49
2023-01-13T02:56:41.872Z,101462.96
2023-01-13T02:57:03.656Z,101464.67
2023-01-13T02:57:25.438Z,101463.30
2023-01-13T02:57:47.222Z,101462.80
2023-01-13T02:58:09.664Z,101461.06
2023-01-13T02:58:32.023Z,101464.36
2023-01-13T02:58:54.215Z,101465.41
2023-01-13T02:59:15.996Z,101462.83
2023-01-13T02:59:37.675Z,101465.45
2023-01-13T02:59:59.363Z,101466.30
2023-01-13T03:00:21.122Z,101460.47
2023-01-13T03:00:43.302Z,101464.11
2023-01-13T03:01:05.348Z,101463.27
2023-01-13T03:01:27.401Z,101462.08
2023-01-13T03:01:50.101Z,101461.92
2023-01-13T03:02:13.382Z,101464.86
2023-01-13T03:02:35.808Z,101466.10
2023-01-13T03:02:57.780Z,101463.52
2023-01-13T03:03:19.709Z,101466.17
2023-01-13T03:03:41.495Z,101463.94
2023-01-13T03:04:13.308Z,101465.48
2023-01-13T03:04:50.208Z,101465.35
2023-01-13T03:05:15.280Z,101467.10
2023-01-13T03:05:37.579Z,101465.55
2023-01-13T03:06:09.281Z,101464.53
2023-01-13T03:06:40.998Z,101464.39
2023-01-13T03:07:06.556Z,101463.88
2023-01-13T03:07:46.835Z,101465.83
2023-01-13T03:08:29.907Z,101468.48
2023-01-13T03:09:11.857Z,101468.13
2023-01-13T03:09:36.906Z,101465.50
2023-01-13T03:10:10.032Z,101468.20
2023-01-13T03:10:50.603Z,101467.98
2023-01-13T03:11:12.883Z,101465.11
2023-01-13T03:11:35.701Z,101463.29
2023-01-13T03:12:10.821Z,101465.31
2023-01-13T03:12:47.235Z,101462.97
2023-01-13T03:13:32.032Z,101464.29
2023-01-13T03:13:59.355Z,101461.15
2023-01-13T03:14:27.379Z,101463.05
2023-01-13T03:15:01.825Z,101463.39
2023-01-13T03:15:29.584Z,101466.02
2023-01-13T03:16:13.540Z,101465.88
2023-01-13T03:16:54.186Z,101470.05
2023-01-13T03:17:22.462Z,101465.58
2023-01-13T03:17:45.059Z,101470.09
2023-01-13T03:18:20.748Z,101467.02
2023-01-13T03:18:45.298Z,101469.27
2023-01-13T03:19:16.183Z,101471.20
2023-01-13T03:19:51.366Z,101474.86
2023-01-13T03:20:16.143Z,101470.04
2023-01-13T03:20:39.742Z,101471.62
2023-01-13T03:21:08.688Z,101472.88
2023-01-13T03:21:39.263Z,101469.42
2023-01-13T03:22:19.762Z,101471.02
2023-01-13T03:23:20.105Z,101471.06
2023-01-13T03:23:50.594Z,101470.45
2023-01-13T03:24:27.718Z,101473.06
2023-01-13T03:24:56.550Z,101471.58
2023-01-13T03:25:19.155Z,101469.50
2023-01-13T03:25:42.063Z,101473.16
2023-01-13T03:26:30.230Z,101468.52
2023-01-13T03:27:53.387Z,101468.09
2023-01-13T03:28:24.070Z,101469.44
2023-01-13T03:28:47.079Z,101469.50
2023-01-13T03:29:27.786Z,101467.19
2023-01-13T03:29:51.106Z,101468.47
2023-01-13T03:30:12.897Z,101471.19
2023-01-13T03:30:41.901Z,101469.41
2023-01-13T03:31:05.306Z,101467.95
2023-01-13T03:31:30.498Z,101470.00
2023-01-13T03:32:53.256Z,101467.75
2023-01-13T03:33:16.264Z,101466.55
2023-01-13T03:33:40.572Z,101469.69
2023-01-13T03:34:04.963Z,101471.11
2023-01-13T03:34:34.304Z,101470.08
2023-01-13T03:34:57.421Z,101471.48
2023-01-13T03:35:20.939Z,101470.80
2023-01-13T03:35:46.204Z,101471.88
2023-01-13T03:36:08.635Z,101471.38
2023-01-13T03:36:30.484Z,101470.20
2023-01-13T03:36:53.289Z,101468.12
2023-01-13T03:37:15.381Z,101468.15
2023-01-13T03:37:38.291Z,101472.53
2023-01-13T03:38:01.216Z,101471.83
2023-01-13T03:38:29.837Z,101473.41
2023-01-13T03:38:52.334Z,101472.92
2023-01-13T03:39:14.939Z,101471.39
2023-01-13T03:39:37.951Z,101471.58
2023-01-13T03:40:04.352Z,101470.90
2023-01-13T03:40:52.145Z,101468.14
2023-01-13T03:41:16.034Z,101469.73
2023-01-13T03:41:49.179Z,101472.01
2023-01-13T03:42:12.184Z,101467.17
2023-01-13T03:42:34.177Z,101467.02
2023-01-13T03:43:16.759Z,101462.70
2023-01-13T03:43:59.270Z,101466.00
2023-01-13T03:44:22.275Z,101461.47
2023-01-13T03:45:02.881Z,101466.26
2023-01-13T03:45:24.668Z,101463.39
2023-01-13T03:45:46.772Z,101462.83
2023-01-13T03:46:10.998Z,101464.14
2023-01-13T03:46:53.624Z,101463.73
2023-01-13T03:47:22.908Z,101463.96
2023-01-13T03:47:51.426Z,101464.41
2023-01-13T03:48:14.439Z,101463.17
2023-01-13T03:48:36.224Z,101462.13
2023-01-13T03:48:58.008Z,101464.38
2023-01-13T03:49:21.429Z,101464.20
2023-01-13T03:49:56.920Z,101467.67
2023-01-13T03:50:20.145Z,101467.86
2023-01-13T03:50:47.452Z,101466.12
2023-01-13T03:51:10.654Z,101466.82
2023-01-13T03:51:32.444Z,101466.16
2023-01-13T03:51:57.291Z,101467.87
2023-01-13T03:52:21.034Z,101464.92
2023-01-13T03:52:50.069Z,101462.68
2023-01-13T03:53:15.845Z,101464.59
2023-01-13T03:53:42.638Z,101465.30
2023-01-13T03:54:05.956Z,101464.44
2023-01-13T03:54:28.356Z,101466.02
2023-01-13T03:54:52.293Z,101465.33
2023-01-13T03:55:14.017Z,101465.34
2023-01-13T03:55:36.777Z,101464.31
2023-01-13T03:55:59.580Z,101465.35
2023-01-13T03:56:24.236Z,101467.28
2023-01-13T03:56:47.388Z,101464.52
2023-01-13T03:57:09.953Z,101463.52
2023-01-13T03:57:32.249Z,101466.10
2023-01-13T03:57:55.786Z,101463.70
2023-01-13T03:58:21.809Z,101467.69
2023-01-13T03:58:44.177Z,101470.30
2023-01-13T03:59:06.982Z,101467.21
2023-01-13T03:59:30.475Z,101467.57
2023-01-13T03:59:52.770Z,101468.09
2023-01-13T04:00:14.861Z,101467.07
2023-01-13T04:00:37.973Z,101466.56
2023-01-13T04:01:11.787Z,101467.78
2023-01-13T04:01:35.842Z,101467.64
2023-01-13T04:02:05.499Z,101465.23
2023-01-13T04:02:31.105Z,101465.79
2023-01-13T04:02:57.285Z,101468.05
2023-01-13T04:03:38.134Z,101463.93
2023-01-13T04:04:08.709Z,101466.36
2023-01-13T04:04:32.391Z,101469.84
2023-01-13T04:04:58.270Z,101466.85
2023-01-13T04:05:20.005Z,101469.40
2023-01-13T04:05:42.551Z,101469.21
2023-01-13T04:06:27.271Z,101468.64
2023-01-13T04:06:56.501Z,101472.71
2023-01-13T04:07:30.045Z,101469.54
2023-01-13T04:07:54.584Z,101470.46
2023-01-13T04:08:20.468Z,101469.21
2023-01-13T04:08:44.107Z,101469.20
2023-01-13T04:09:26.119Z,101470.05
2023-01-13T04:09:47.801Z,101469.18
2023-01-13T04:10:09.705Z,101469.58
2023-01-13T04:10:34.017Z,101468.89
2023-01-13T04:10:55.719Z,101471.02
2023-01-13T04:11:25.170Z,101471.58
2023-01-13T04:11:48.181Z,101471.11
2023-01-13T04:12:55.041Z,101469.08
2023-01-13T04:13:18.791Z,101467.41
2023-01-13T04:13:40.540Z,101465.02
2023-01-13T04:14:02.670Z,101467.84
2023-01-13T04:14:24.457Z,101466.98
2023-01-13T04:14:46.139Z,101465.30
2023-01-13T04:15:08.436Z,101462.36
2023-01-13T04:15:31.834Z,101464.29
2023-01-13T04:15:53.781Z,101464.48
2023-01-13T04:16:15.524Z,101463.29
2023-01-13T04:16:37.825Z,101463.99
2023-01-13T04:16:59.722Z,101463.16
2023-01-13T04:17:21.596Z,101463.53
2023-01-13T04:17:43.312Z,101464.92
2023-01-13T04:18:15.243Z,101462.36
2023-01-13T04:18:37.385Z,101465.68
2023-01-13T04:18:59.164Z,101466.57
2023-01-13T04:19:21.459Z,101463.29
2023-01-13T04:19:43.248Z,101461.77
2023-01-13T04:20:05.346Z,101464.87
2023-01-13T04:20:27.126Z,101465.08
2023-01-13T04:20:49.533Z,101463.02
2023-01-13T04:21:11.242Z,101467.19
2023-01-13T04:21:32.986Z,101467.70
2023-01-13T04:21:54.891Z,101467.58
2023-01-13T04:22:16.606Z,101465.17
2023-01-13T04:22:38.441Z,101468.66
2023-01-13T04:23:00.223Z,101464.65
2023-01-13T04:23:22.018Z,101463.27
2023-01-13T04:23:43.774Z,101465.48
2023-01-13T04:24:05.794Z,101464.05
2023-01-13T04:24:27.510Z,101465.73
2023-01-13T04:24:49.220Z,101465.15
2023-01-13T04:25:11.550Z,101465.77
2023-01-13T04:25:34.252Z,101466.02
2023-01-13T04:25:56.047Z,101467.02
2023-01-13T04:26:19.861Z,101465.23
2023-01-13T04:26:41.668Z,101465.65
2023-01-13T04:27:03.654Z,101466.31
2023-01-13T04:27:25.424Z,101462.64
2023-01-13T04:27:47.132Z,101463.98
2023-01-13T04:28:08.910Z,101465.34
2023-01-13T04:28:30.683Z,101466.20
2023-01-13T04:28:54.822Z,101466.55
2023-01-13T04:29:16.567Z,101468.33
2023-01-13T04:29:38.303Z,101465.20
2023-01-13T04:29:59.997Z,101466.28
2023-01-13T04:30:21.683Z,101466.46
2023-01-13T04:30:43.873Z,101468.72
2023-01-13T04:31:05.806Z,101469.43
2023-01-13T04:31:27.661Z,101471.69
2023-01-13T04:31:49.496Z,101468.77
2023-01-13T04:32:11.290Z,101469.83
2023-01-13T04:32:33.064Z,101470.52
2023-01-13T04:32:55.260Z,101465.86
2023-01-13T04:33:17.253Z,101465.88
2023-01-13T04:33:39.032Z,101469.88
2023-01-13T04:34:00.928Z,101467.47
2023-01-13T04:34:22.708Z,101467.49
2023-01-13T04:34:44.387Z,101469.23
2023-01-13T04:35:06.280Z,101465.62
2023-01-13T04:35:28.472Z,101468.73
2023-01-13T04:35:50.159Z,101466.16
2023-01-13T04:36:11.863Z,101466.84
2023-01-13T04:36:33.616Z,101466.67
2023-01-13T04:36:55.398Z,101467.21
2023-01-13T04:37:17.184Z,101468.10
2023-01-13T04:37:38.967Z,101468.63
2023-01-13T04:38:01.779Z,101471.05
2023-01-13T04:38:23.667Z,101471.07
2023-01-13T04:38:45.553Z,101469.88
2023-01-13T04:39:07.331Z,101468.50
2023-01-13T04:39:29.097Z,101467.99
2023-01-13T04:39:50.907Z,101469.20
2023-01-13T04:40:12.908Z,101467.15
2023-01-13T04:40:34.702Z,101467.70
2023-01-13T04:40:56.395Z,101467.36
2023-01-13T04:41:18.150Z,101468.23
2023-01-13T04:41:58.142Z,101471.70
2023-01-13T04:42:19.915Z,101470.14
2023-01-13T04:42:43.439Z,101469.27
2023-01-13T04:43:05.241Z,101471.30
2023-01-13T04:43:27.022Z,101472.63
2023-01-13T04:43:48.793Z,101467.89
2023-01-13T04:44:10.470Z,101472.34
2023-01-13T04:44:35.459Z,101470.72
2023-01-13T04:44:57.419Z,101470.83
2023-01-13T04:45:19.120Z,101471.99
2023-01-13T04:45:41.396Z,101470.20
2023-01-13T04:46:03.233Z,101471.03
2023-01-13T04:46:25.127Z,101473.40